Time;durP1;ratioP1;P1;durP2;ratioP2;P2;SDS_P1;SDS_P2;PMS_P1;PMS_P2;Temp;Humidity;BMP_temperature;BMP_pressure;BME280_temperature;BME280_humidity;BME280_pressure;Samples;Min_cycle;Max_cycle;Signal;HPM_P1;HPM_P2
2022/12/24 00:00:33;;;;;;;20.27;4.63;;;10.60;99.90;;;-144.05;78.88;125687.94;5026882;28;20048;-84
2022/12/24 00:03:00;;;;;;;16.63;4.13;;;10.60;99.90;;;-144.05;79.30;125687.94;5010381;28;20544;-85
2022/12/24 00:05:26;;;;;;;17.85;3.72;;;10.60;99.90;;;-144.05;79.50;125687.94;5014219;28;20064;-83
2022/12/24 00:07:52;;;;;;;13.23;3.65;;;10.60;99.90;;;-144.05;79.15;125687.94;4995652;28;20443;-85
2022/12/24 00:10:18;;;;;;;25.95;5.18;;;10.50;99.90;;;-144.05;79.49;125687.94;5011153;28;20049;-82
2022/12/24 00:12:44;;;;;;;23.70;4.75;;;10.50;99.90;;;-144.05;79.85;125687.94;5011542;28;20109;-85
2022/12/24 00:15:10;;;;;;;26.33;4.00;;;10.50;99.90;;;-144.05;80.02;125687.94;5011747;28;20045;-85
2022/12/24 00:17:36;;;;;;;23.63;4.35;;;10.50;99.90;;;-144.05;80.09;125687.94;5011341;28;20080;-81
2022/12/24 00:20:03;;;;;;;23.58;4.55;;;10.40;99.90;;;-144.05;80.35;125687.94;4994790;28;20054;-85
2022/12/24 00:22:29;;;;;;;21.75;3.60;;;10.40;99.90;;;-144.05;79.95;125687.94;4994782;28;20034;-84
2022/12/24 00:24:55;;;;;;;20.33;4.18;;;10.40;99.90;;;-144.05;79.90;125687.94;5011117;28;20044;-86
2022/12/24 00:27:21;;;;;;;21.63;5.57;;;10.40;99.90;;;-144.05;79.89;125687.94;5011377;28;20090;-85
2022/12/24 00:29:47;;;;;;;22.15;4.63;;;10.40;99.90;;;-144.05;79.57;125687.94;4994547;28;20026;-85
2022/12/24 00:32:13;;;;;;;17.75;4.93;;;10.40;99.90;;;-144.05;78.92;125687.94;5012255;28;20135;-84
2022/12/24 00:34:39;;;;;;;20.77;4.22;;;10.40;99.90;;;-144.05;78.93;125687.94;5012262;28;20478;-83
2022/12/24 00:37:06;;;;;;;16.95;3.97;;;10.40;99.90;;;-144.05;78.09;125687.94;4994942;28;20367;-85
2022/12/24 00:39:32;;;;;;;27.05;4.25;;;10.40;99.90;;;-144.05;78.12;125687.94;5000542;28;20034;-84
2022/12/24 00:41:58;;;;;;;32.65;5.97;;;10.40;99.90;;;-144.05;77.76;125687.94;5017377;28;20334;-84
2022/12/24 00:44:25;;;;;;;22.65;4.72;;;10.50;99.90;;;-144.05;78.00;125687.94;5017186;28;20029;-85
2022/12/24 00:46:51;;;;;;;20.85;4.93;;;10.40;99.90;;;-144.05;77.69;125687.94;5017425;28;20402;-85
2022/12/24 00:49:17;;;;;;;17.45;4.28;;;10.40;99.90;;;-144.05;77.51;125687.94;5000823;28;20078;-86
2022/12/24 00:51:42;;;;;;;19.85;5.00;;;10.40;99.90;;;-144.05;77.31;125687.94;5000858;28;20327;-85
2022/12/24 00:54:08;;;;;;;22.58;4.97;;;10.40;99.90;;;-144.05;77.11;125687.94;5001122;28;20026;-86
2022/12/24 00:56:34;;;;;;;18.67;3.72;;;10.50;99.90;;;-144.05;76.93;125687.94;5000949;28;20037;-84
2022/12/24 00:59:03;;;;;;;25.63;4.00;;;10.50;99.90;;;-144.05;76.37;125687.94;5001189;28;20088;-85
2022/12/24 01:01:29;;;;;;;25.90;4.85;;;10.50;99.90;;;-144.05;75.88;125687.94;5018268;28;20242;-84
2022/12/24 01:05:09;;;;;;;22.88;6.20;;;10.70;99.90;;;-144.05;75.50;125687.94;5018801;28;20088;-83
2022/12/24 01:06:41;;;;;;;23.48;4.50;;;10.60;99.90;;;-144.05;75.32;125687.94;5018510;28;20482;-85
2022/12/24 01:09:07;;;;;;;24.33;5.15;;;10.50;99.90;;;-144.05;75.47;125687.94;5018911;28;20114;-84
2022/12/24 01:11:33;;;;;;;17.90;4.82;;;10.50;99.90;;;-144.05;75.46;125687.94;5018798;28;20041;-85
2022/12/24 01:13:59;;;;;;;24.40;4.40;;;10.40;99.90;;;-144.05;74.96;125687.94;5018891;28;20395;-85
2022/12/24 01:16:25;;;;;;;30.95;5.35;;;10.40;99.90;;;-144.05;74.61;125687.94;5001265;28;20057;-84
2022/12/24 01:18:50;;;;;;;36.90;4.95;;;10.40;99.90;;;-144.05;74.58;125687.94;5017775;28;20025;-84
2022/12/24 01:21:16;;;;;;;27.25;4.82;;;10.40;99.90;;;-144.05;74.43;125687.94;5036433;28;20021;-76
2022/12/24 01:23:43;;;;;;;18.38;4.78;;;10.40;99.90;;;-144.05;74.33;125687.94;5031479;28;20057;-84
2022/12/24 01:26:13;;;;;;;20.30;4.38;;;10.40;99.90;;;-144.05;73.85;125687.94;5000760;28;20501;-86
2022/12/24 01:28:40;;;;;;;26.27;4.90;;;10.40;99.90;;;-144.05;74.11;125687.94;5016950;28;20040;-85
2022/12/24 01:31:16;;;;;;;19.15;5.07;;;10.40;99.90;;;-144.05;75.02;125687.94;5000580;28;20045;-82
2022/12/24 01:33:44;;;;;;;29.83;4.78;;;10.30;99.90;;;-144.05;73.89;125687.94;5000825;28;20044;-83
2022/12/24 01:36:12;;;;;;;24.27;4.43;;;10.30;99.90;;;-144.05;73.95;125687.94;5017102;28;20089;-84
2022/12/24 01:38:39;;;;;;;21.95;4.38;;;10.40;99.90;;;-144.05;74.60;125687.94;5000567;28;20057;-85
2022/12/24 01:43:50;;;;;;;25.15;4.43;;;10.30;99.90;;;-144.05;74.93;125687.94;5018583;28;20544;-85
2022/12/24 01:46:31;;;;;;;26.70;5.28;;;10.30;99.90;;;-144.05;74.49;125687.94;5069928;28;20394;-78
2022/12/24 01:49:05;;;;;;;30.40;5.38;;;10.30;99.90;;;-144.05;75.16;125687.94;5049877;28;20033;-78
2022/12/24 01:51:46;;;;;;;26.88;5.07;;;10.30;99.90;;;-144.05;75.28;125687.94;5048256;28;20030;-78
2022/12/24 01:54:27;;;;;;;23.75;4.55;;;10.30;99.90;;;-144.05;75.71;125687.94;5049735;28;20395;-79
2022/12/24 01:57:16;;;;;;;23.42;4.28;;;10.30;99.90;;;-144.05;75.53;125687.94;5049347;28;20385;-78
2022/12/24 01:59:52;;;;;;;28.58;4.78;;;10.30;99.90;;;-144.05;75.34;125687.94;5063564;22;20121;-77
2022/12/24 02:02:20;;;;;;;27.88;4.28;;;10.20;99.90;;;-144.05;75.72;125687.94;5028729;28;20111;-76
2022/12/24 02:05:01;;;;;;;33.70;5.35;;;10.10;99.90;;;-144.05;76.14;125687.94;5029038;28;20052;-77
2022/12/24 02:07:28;;;;;;;29.83;4.45;;;10.10;99.90;;;-144.05;75.58;125687.94;5029098;28;20048;-77
2022/12/24 02:10:00;;;;;;;23.90;4.53;;;10.10;99.90;;;-144.05;76.05;125687.94;5029188;28;20029;-77
2022/12/24 02:12:34;;;;;;;26.42;5.45;;;10.10;99.90;;;-144.05;75.75;125687.94;5027711;28;20029;-76
2022/12/24 02:15:01;;;;;;;32.00;5.05;;;10.10;99.90;;;-144.05;75.73;125687.94;5028957;28;20033;-77
2022/12/24 02:17:57;;;;;;;23.77;5.53;;;10.10;99.90;;;-144.05;75.08;125687.94;5028381;28;20025;-77
2022/12/24 02:20:46;;;;;;;27.10;5.15;;;10.10;99.90;;;-144.05;74.59;125687.94;5028029;28;20263;-78
2022/12/24 02:23:39;;;;;;;29.58;4.78;;;10.20;99.90;;;-144.05;74.95;125687.94;5028439;28;20107;-76
2022/12/24 02:27:19;;;;;;;19.75;4.55;;;10.20;99.90;;;-144.05;74.95;125687.94;5027844;28;20460;-77
2022/12/24 02:30:18;;;;;;;34.45;4.72;;;10.20;99.90;;;-144.05;74.06;125687.94;5015659;28;20044;-77
2022/12/24 02:33:25;;;;;;;23.48;5.13;;;10.20;99.90;;;-144.05;74.43;125687.94;5028568;28;20030;-77
2022/12/24 02:36:15;;;;;;;32.13;4.85;;;10.10;99.90;;;-144.05;74.44;125687.94;5026968;28;20481;-77
2022/12/24 02:39:09;;;;;;;25.40;5.43;;;10.10;99.90;;;-144.05;74.44;125687.94;5028560;28;20045;-75
2022/12/24 02:44:48;;;;;;;28.70;4.47;;;10.20;99.90;;;-144.05;74.02;125687.94;5028328;28;20149;-77
2022/12/24 02:47:21;;;;;;;26.25;5.80;;;10.10;99.90;;;-144.05;75.01;125687.94;5029299;28;20498;-76
2022/12/24 02:49:48;;;;;;;33.85;6.20;;;10.00;99.90;;;-144.05;74.52;125687.94;5029406;28;20033;-77
2022/12/24 02:52:47;;;;;;;28.13;6.10;;;10.00;99.90;;;-144.05;75.53;125687.94;5027645;28;20030;-77
2022/12/24 02:55:52;;;;;;;21.63;5.22;;;9.90;99.90;;;-144.05;74.89;125687.94;4985284;28;20046;-74
2022/12/24 02:58:47;;;;;;;29.48;5.50;;;9.90;99.90;;;-144.05;74.96;125687.94;5014364;28;20521;-76
2022/12/24 03:01:41;;;;;;;33.97;5.68;;;9.80;99.90;;;-144.05;75.06;125687.94;5014557;28;20478;-76
2022/12/24 03:04:50;;;;;;;28.92;5.38;;;9.80;99.90;;;-144.05;74.76;125687.94;5014733;28;20057;-76
2022/12/24 03:07:50;;;;;;;29.40;5.70;;;9.80;99.90;;;-144.05;74.96;125687.94;4988553;28;20038;-77
2022/12/24 03:10:45;;;;;;;33.47;5.75;;;9.70;99.90;;;-144.05;75.04;125687.94;5014092;28;20064;-77
2022/12/24 03:13:18;;;;;;;24.48;5.57;;;9.80;99.90;;;-144.05;74.73;125687.94;5005423;28;20048;-76
2022/12/24 03:15:47;;;;;;;29.13;5.40;;;9.70;99.90;;;-144.05;75.05;125687.94;5014343;28;20041;-77
2022/12/24 03:18:21;;;;;;;34.50;6.10;;;9.80;99.90;;;-144.05;75.82;125687.94;5014203;28;20032;-76
2022/12/24 03:21:36;;;;;;;33.72;6.28;;;9.80;99.90;;;-144.05;76.03;125687.94;5012744;28;20030;-77
2022/12/24 03:24:04;;;;;;;29.88;5.22;;;9.80;99.90;;;-144.05;76.03;125687.94;5008412;28;20046;-76
2022/12/24 03:26:33;;;;;;;33.42;4.97;;;9.80;99.90;;;-144.05;76.03;125687.94;5014745;28;20436;-76
2022/12/24 03:28:59;;;;;;;28.48;5.63;;;9.80;99.90;;;-144.05;75.55;125687.94;5012470;28;20030;-77
2022/12/24 03:31:25;;;;;;;24.65;4.93;;;9.80;99.90;;;-144.05;75.85;125687.94;5012551;28;20373;-77
2022/12/24 03:33:51;;;;;;;27.48;4.70;;;9.80;99.90;;;-144.05;75.95;125687.94;5012560;28;20034;-77
2022/12/24 03:36:17;;;;;;;27.02;5.95;;;9.90;99.90;;;-144.05;75.83;125687.94;5013837;28;20030;-76
2022/12/24 03:38:43;;;;;;;27.92;5.68;;;9.80;99.90;;;-144.05;75.72;125687.94;5012420;28;20441;-77
2022/12/24 03:41:09;;;;;;;32.22;4.65;;;9.80;99.90;;;-144.05;76.05;125687.94;5013861;28;20075;-76
2022/12/24 03:43:35;;;;;;;23.45;4.80;;;9.80;99.90;;;-144.05;76.12;125687.94;5013572;28;20124;-77
2022/12/24 03:46:07;;;;;;;30.25;5.25;;;9.80;99.90;;;-144.05;75.77;125687.94;5013915;28;20041;-77
2022/12/24 03:48:35;;;;;;;27.27;4.82;;;9.80;99.90;;;-144.05;75.35;125687.94;5013920;28;20021;-77
2022/12/24 03:51:02;;;;;;;33.05;5.22;;;9.80;99.90;;;-144.05;75.56;125687.94;5011987;28;20443;-77
2022/12/24 03:53:28;;;;;;;25.67;5.18;;;9.80;99.90;;;-144.05;75.36;125687.94;5013126;28;20123;-77
2022/12/24 03:55:54;;;;;;;20.42;4.80;;;9.80;99.90;;;-144.05;75.65;125687.94;5011647;28;20477;-76
2022/12/24 03:58:20;;;;;;;23.45;4.45;;;9.70;99.90;;;-144.05;76.57;125687.94;5011818;28;20120;-76
2022/12/24 04:00:45;;;;;;;20.05;5.28;;;9.90;99.90;;;-144.05;76.29;125687.94;5013136;28;20037;-77
2022/12/24 04:03:11;;;;;;;32.80;5.95;;;9.80;99.90;;;-144.05;76.16;125687.94;5013276;28;20550;-77
2022/12/24 04:05:37;;;;;;;26.80;5.13;;;9.90;99.90;;;-144.05;76.66;125687.94;5013036;28;20080;-77
2022/12/24 04:08:03;;;;;;;33.05;6.32;;;9.90;99.90;;;-144.05;76.33;125687.94;5012143;28;20037;-76
2022/12/24 04:10:29;;;;;;;28.67;6.22;;;9.90;99.90;;;-144.05;76.74;125687.94;5013058;28;20026;-76
2022/12/24 04:12:54;;;;;;;27.27;5.22;;;9.90;99.90;;;-144.05;77.13;125687.94;5012933;28;20025;-76
2022/12/24 04:15:20;;;;;;;38.30;6.03;;;9.90;99.90;;;-144.05;77.13;125687.94;5012866;28;20053;-76
2022/12/24 04:17:46;;;;;;;26.17;5.18;;;9.90;99.90;;;-144.05;76.84;125687.94;5012844;28;20382;-75
2022/12/24 04:20:12;;;;;;;24.13;4.18;;;9.90;99.90;;;-144.05;76.86;125687.94;5012501;28;20105;-77
2022/12/24 04:22:38;;;;;;;33.67;5.13;;;9.90;99.90;;;-144.05;76.86;125687.94;5012520;28;20112;-77
2022/12/24 04:25:04;;;;;;;29.27;4.72;;;9.90;99.90;;;-144.05;77.08;125687.94;5011010;28;20026;-77
2022/12/24 04:27:30;;;;;;;26.17;4.88;;;9.90;99.90;;;-144.05;77.09;125687.94;5011170;28;20049;-76
2022/12/24 04:29:56;;;;;;;23.77;4.65;;;9.90;99.90;;;-144.05;76.85;125687.94;5011193;28;20481;-76
2022/12/24 04:32:24;;;;;;;24.77;4.18;;;9.90;99.90;;;-144.05;76.93;125687.94;5013027;28;20022;-77
2022/12/24 04:34:50;;;;;;;24.63;4.28;;;9.90;99.90;;;-144.05;78.01;125687.94;5013354;28;20038;-76
2022/12/24 04:37:16;;;;;;;21.58;3.90;;;9.80;99.90;;;-144.05;78.04;125687.94;5013591;28;20034;-75
2022/12/24 04:39:42;;;;;;;29.08;4.85;;;9.80;99.90;;;-144.05;78.05;125687.94;5013920;28;20117;-75
2022/12/24 04:42:08;;;;;;;25.27;5.05;;;9.90;99.90;;;-144.05;78.21;125687.94;5013155;28;20393;-75
2022/12/24 04:44:33;;;;;;;26.80;4.47;;;9.80;99.90;;;-144.05;77.78;125687.94;5012630;28;20025;-76
2022/12/24 04:46:59;;;;;;;24.92;4.63;;;9.80;99.90;;;-144.05;77.68;125687.94;5012700;28;20501;-74
2022/12/24 04:49:25;;;;;;;22.15;3.70;;;9.80;99.90;;;-144.05;78.20;125687.94;5012529;28;20049;-76
2022/12/24 04:51:51;;;;;;;24.13;4.82;;;9.80;99.90;;;-144.05;78.75;125687.94;5012618;28;20112;-76
2022/12/24 04:54:17;;;;;;;29.27;4.38;;;9.80;99.90;;;-144.05;78.11;125687.94;5012633;28;20038;-75
2022/12/24 04:56:42;;;;;;;22.27;5.13;;;9.80;99.90;;;-144.05;78.72;125687.94;5012781;28;20083;-76
2022/12/24 04:59:08;;;;;;;20.88;4.32;;;9.80;99.90;;;-144.05;78.11;125687.94;5012275;28;20485;-76
2022/12/24 05:01:34;;;;;;;22.30;5.05;;;9.90;99.90;;;-144.05;78.32;125687.94;5012639;28;20113;-75
2022/12/24 05:04:00;;;;;;;22.70;4.18;;;9.90;99.90;;;-144.05;77.91;125687.94;5012651;28;20109;-76
2022/12/24 05:06:31;;;;;;;27.70;4.30;;;9.90;99.90;;;-144.05;78.01;125687.94;5015860;28;20383;-75
2022/12/24 05:08:59;;;;;;;26.95;5.13;;;9.90;99.90;;;-144.05;78.89;125687.94;5035530;28;20052;-75
2022/12/24 05:11:26;;;;;;;19.42;4.50;;;9.90;99.90;;;-144.05;78.85;125687.94;5036120;28;20038;-75
2022/12/24 05:13:52;;;;;;;32.25;5.30;;;9.90;99.90;;;-144.05;79.34;125687.94;5035750;28;20034;-76
2022/12/24 05:16:22;;;;;;;25.83;4.70;;;9.90;99.90;;;-144.05;79.40;125687.94;5036104;28;20048;-73
2022/12/24 05:18:49;;;;;;;23.33;4.70;;;9.90;99.90;;;-144.05;79.52;125687.94;5035450;28;20022;-76
2022/12/24 05:21:20;;;;;;;19.92;4.53;;;9.80;99.90;;;-144.05;79.94;125687.94;5018910;28;20065;-76
2022/12/24 05:26:48;;;;;;;19.10;5.07;;;9.80;99.90;;;-144.05;80.40;125687.94;5012339;28;20053;-76
2022/12/24 05:29:14;;;;;;;28.02;4.78;;;9.80;99.90;;;-144.05;80.23;125687.94;5012026;28;20109;-75
2022/12/24 05:31:43;;;;;;;16.27;4.80;;;9.90;99.90;;;-144.05;79.41;125687.94;5012076;28;20552;-75
2022/12/24 05:34:11;;;;;;;19.13;5.07;;;9.90;99.90;;;-144.05;79.38;125687.94;5011912;28;20058;-74
2022/12/24 05:36:38;;;;;;;18.85;4.82;;;9.90;99.90;;;-144.05;79.93;125687.94;5012193;28;20485;-74
2022/12/24 05:39:04;;;;;;;21.20;4.97;;;9.90;99.90;;;-144.05;80.29;125687.94;5010733;28;20045;-74
2022/12/24 05:41:31;;;;;;;19.13;4.65;;;10.00;99.90;;;-144.05;80.25;125687.94;5010623;28;20064;-75
2022/12/24 05:43:57;;;;;;;22.40;5.10;;;10.00;99.90;;;-144.05;80.25;125687.94;5012491;28;20038;-76
2022/12/24 05:46:25;;;;;;;19.02;4.50;;;9.90;99.90;;;-144.05;79.95;125687.94;5012419;28;20030;-75
2022/12/24 05:48:52;;;;;;;20.45;4.97;;;9.90;99.90;;;-144.05;79.91;125687.94;5012025;28;20034;-76
2022/12/24 05:51:21;;;;;;;13.98;4.43;;;10.00;99.90;;;-144.05;80.12;125687.94;5012119;28;20108;-74
2022/12/24 05:53:50;;;;;;;21.38;4.22;;;10.00;99.90;;;-144.05;80.34;125687.94;5011894;28;20115;-76
2022/12/24 05:56:22;;;;;;;16.08;4.47;;;10.00;99.90;;;-144.05;80.30;125687.94;5012046;28;20058;-77
2022/12/24 05:58:50;;;;;;;20.10;4.68;;;10.00;99.90;;;-144.05;80.00;125687.94;5012128;28;20026;-75
2022/12/24 06:01:17;;;;;;;24.25;5.30;;;10.00;99.90;;;-144.05;79.84;125687.94;5012285;28;20117;-76
2022/12/24 06:03:43;;;;;;;29.95;5.47;;;10.00;99.90;;;-144.05;80.97;125687.94;5012766;28;20172;-77
2022/12/24 06:06:19;;;;;;;25.88;4.80;;;10.00;99.90;;;-144.05;81.12;125687.94;5012159;28;20022;-77
2022/12/24 06:08:46;;;;;;;24.35;5.35;;;10.00;99.90;;;-144.05;80.91;125687.94;5010246;28;20109;-77
2022/12/24 06:11:18;;;;;;;23.90;4.97;;;10.00;99.90;;;-144.05;80.72;125687.94;5011640;28;20030;-75
2022/12/24 06:13:44;;;;;;;18.02;4.35;;;10.00;99.90;;;-144.05;80.38;125687.94;5010940;28;20026;-77
2022/12/24 06:16:19;;;;;;;25.23;5.30;;;10.00;99.90;;;-144.05;80.82;125687.94;5011473;28;20037;-75
2022/12/24 06:18:45;;;;;;;19.08;4.40;;;10.00;99.90;;;-144.05;80.91;125687.94;5011174;28;20034;-76
2022/12/24 06:21:12;;;;;;;19.98;4.60;;;10.00;99.90;;;-144.05;80.47;125687.94;5012765;28;20080;-75
2022/12/24 06:23:42;;;;;;;24.60;4.13;;;10.00;99.90;;;-144.05;80.10;125687.94;5021570;28;20026;-75
2022/12/24 06:26:13;;;;;;;18.77;5.55;;;10.00;99.90;;;-144.05;79.94;125687.94;5020638;28;20378;-76
2022/12/24 06:28:39;;;;;;;16.27;4.03;;;10.00;99.90;;;-144.05;79.33;125687.94;5019548;28;20081;-75
2022/12/24 06:31:12;;;;;;;23.13;6.00;;;10.00;99.90;;;-144.05;79.74;125687.94;5011081;28;20033;-76
2022/12/24 06:33:38;;;;;;;18.98;5.13;;;10.10;99.90;;;-144.05;79.96;125687.94;5015628;28;20106;-76
2022/12/24 06:36:15;;;;;;;24.95;4.75;;;10.00;99.90;;;-144.05;79.75;125687.94;5017132;28;20030;-77
2022/12/24 06:38:41;;;;;;;23.83;4.97;;;10.00;99.90;;;-144.05;80.29;125687.94;5021233;28;20034;-78
2022/12/24 06:41:08;;;;;;;22.75;4.47;;;10.00;99.90;;;-144.05;80.24;125687.94;5015262;28;20036;-76
2022/12/24 06:43:34;;;;;;;23.38;4.60;;;10.10;99.90;;;-144.05;80.42;125687.94;5015013;28;20060;-75
2022/12/24 06:46:03;;;;;;;27.05;4.95;;;10.10;99.90;;;-144.05;80.07;125687.94;5015231;28;20037;-77
2022/12/24 06:48:29;;;;;;;28.30;5.45;;;10.10;99.90;;;-144.05;79.87;125687.94;5015038;28;20454;-74
2022/12/24 06:50:55;;;;;;;17.80;5.03;;;10.10;99.90;;;-144.05;79.53;125687.94;5014925;28;20033;-74
2022/12/24 06:53:22;;;;;;;20.48;5.30;;;10.10;99.90;;;-144.05;80.18;125687.94;5015196;28;20113;-76
2022/12/24 06:55:48;;;;;;;25.85;4.70;;;10.10;99.90;;;-144.05;79.99;125687.94;5013986;28;20026;-74
2022/12/24 06:58:13;;;;;;;25.60;4.82;;;10.20;99.90;;;-144.05;79.26;125687.94;5014692;28;20036;-74
2022/12/24 07:00:39;;;;;;;20.73;3.90;;;10.10;99.90;;;-144.05;79.89;125687.94;5014705;28;20116;-74
2022/12/24 07:03:05;;;;;;;19.00;4.70;;;10.20;99.90;;;-144.05;79.77;125687.94;5015211;28;20113;-76
2022/12/24 07:05:31;;;;;;;23.77;4.53;;;10.20;99.90;;;-144.05;79.55;125687.94;5013575;28;20485;-77
2022/12/24 07:07:57;;;;;;;20.63;3.83;;;10.10;99.90;;;-144.05;80.13;125687.94;5013472;28;20100;-76
2022/12/24 07:10:23;;;;;;;28.58;4.75;;;10.10;99.90;;;-144.05;80.20;125687.94;5013317;28;20513;-76
2022/12/24 07:12:49;;;;;;;22.60;5.70;;;10.00;99.90;;;-144.05;80.21;125687.94;5014950;28;20048;-76
2022/12/24 07:15:16;;;;;;;20.13;3.97;;;10.00;99.90;;;-144.05;79.80;125687.94;5014757;28;20482;-76
2022/12/24 07:17:42;;;;;;;17.20;4.32;;;10.00;99.90;;;-144.05;79.61;125687.94;5014422;28;20038;-76
2022/12/24 07:20:13;;;;;;;20.58;4.47;;;10.10;99.90;;;-144.05;79.82;125687.94;5012925;28;20375;-74
2022/12/24 07:22:40;;;;;;;23.00;4.95;;;10.10;99.90;;;-144.05;79.27;125687.94;5013322;28;20025;-75
2022/12/24 07:25:06;;;;;;;23.10;5.03;;;10.10;99.90;;;-144.05;78.70;125687.94;5014508;28;20030;-76
2022/12/24 07:27:32;;;;;;;23.35;4.35;;;10.10;99.90;;;-144.05;78.67;125687.94;5014685;28;20065;-76
2022/12/24 07:29:58;;;;;;;19.83;3.40;;;10.10;99.90;;;-144.05;78.68;125687.94;5014432;28;20056;-76
2022/12/24 07:32:24;;;;;;;19.13;4.50;;;10.10;99.90;;;-144.05;78.84;125687.94;5014795;28;20022;-77
2022/12/24 07:34:50;;;;;;;24.02;4.45;;;10.10;99.90;;;-144.05;78.75;125687.94;5014745;28;20034;-75
2022/12/24 07:37:16;;;;;;;17.40;4.57;;;10.10;99.90;;;-144.05;78.62;125687.94;5014931;28;20576;-75
2022/12/24 07:39:41;;;;;;;23.17;5.57;;;10.10;99.90;;;-144.05;78.68;125687.94;5015528;28;20532;-75
2022/12/24 07:42:07;;;;;;;30.05;5.32;;;10.10;99.90;;;-144.05;79.07;125687.94;5014723;28;20064;-75
2022/12/24 07:44:34;;;;;;;15.98;3.80;;;10.00;99.90;;;-144.05;78.80;125687.94;5015866;28;20033;-74
2022/12/24 07:46:59;;;;;;;25.63;4.68;;;10.00;99.90;;;-144.05;79.08;125687.94;5015826;28;20025;-75
2022/12/24 07:49:25;;;;;;;23.48;5.35;;;10.00;99.90;;;-144.05;79.14;125687.94;5014325;28;20508;-76
2022/12/24 07:51:51;;;;;;;21.52;4.45;;;10.00;99.90;;;-144.05;78.82;125687.94;5015098;28;20068;-74
2022/12/24 07:54:17;;;;;;;27.23;4.53;;;10.00;99.90;;;-144.05;79.18;125687.94;5014555;28;20053;-75
2022/12/24 07:56:43;;;;;;;19.73;4.53;;;10.00;99.90;;;-144.05;78.68;125687.94;5013380;28;20392;-76
2022/12/24 08:01:38;;;;;;;25.08;5.22;;;10.00;99.90;;;-144.05;78.41;125687.94;5020011;23;20058;-86
2022/12/24 08:04:04;;;;;;;23.80;6.88;;;10.10;99.90;;;-144.05;77.84;125687.94;5015924;28;20034;-79
2022/12/24 08:06:30;;;;;;;36.28;7.15;;;10.10;99.90;;;-144.05;78.70;125687.94;5015816;28;20030;-84
2022/12/24 08:08:56;;;;;;;22.92;5.88;;;10.20;99.90;;;-144.05;78.09;125687.94;5015471;28;20030;-85
2022/12/24 08:11:21;;;;;;;17.40;4.72;;;10.10;99.90;;;-144.05;77.79;125687.94;5015270;28;20026;-84
2022/12/24 08:13:47;;;;;;;24.15;5.30;;;10.10;99.90;;;-144.05;77.36;125687.94;5017114;28;20402;-82
2022/12/24 08:16:14;;;;;;;20.90;6.32;;;10.10;99.90;;;-144.05;77.17;125687.94;5016061;28;20120;-85
2022/12/24 08:18:40;;;;;;;34.58;5.88;;;10.20;99.90;;;-144.05;77.21;125687.94;5018395;28;20386;-84
2022/12/24 08:21:08;;;;;;;30.95;5.18;;;10.60;99.90;;;-144.05;77.15;125687.94;5016558;28;20030;-83
2022/12/24 08:23:36;;;;;;;28.40;5.95;;;10.20;99.90;;;-144.05;77.31;125687.94;5016637;28;20064;-84
2022/12/24 08:26:06;;;;;;;20.80;4.93;;;10.20;99.90;;;-144.05;76.91;125687.94;5016394;28;20025;-86
2022/12/24 08:28:33;;;;;;;32.42;6.13;;;10.40;99.90;;;-144.05;76.86;125687.94;5017597;28;20073;-86
2022/12/24 08:30:59;;;;;;;29.25;5.93;;;10.30;99.90;;;-144.05;76.94;125687.94;5017463;28;20032;-86
2022/12/24 08:33:25;;;;;;;27.25;5.90;;;10.20;99.90;;;-144.05;77.31;125687.94;5018759;28;20087;-87
2022/12/24 08:35:55;;;;;;;29.10;5.53;;;10.20;99.90;;;-144.05;76.94;125687.94;5020119;28;20544;-85
2022/12/24 08:38:23;;;;;;;23.50;4.63;;;10.30;99.90;;;-144.05;76.78;125687.94;5018553;28;20040;-85
2022/12/24 08:40:51;;;;;;;23.80;5.80;;;10.30;99.90;;;-144.05;76.88;125687.94;5016451;28;20049;-83
2022/12/24 08:43:18;;;;;;;33.05;5.20;;;10.30;99.90;;;-144.05;77.22;125687.94;5015454;28;20052;-85
2022/12/24 08:45:48;;;;;;;28.17;5.80;;;10.30;99.90;;;-144.05;76.99;125687.94;5015338;28;20032;-87
2022/12/24 08:48:14;;;;;;;28.23;4.45;;;10.30;99.90;;;-144.05;77.14;125687.94;5015874;28;20048;-84
2022/12/24 08:50:42;;;;;;;19.45;4.85;;;10.40;99.90;;;-144.05;76.82;125687.94;5015161;28;20037;-84
2022/12/24 08:53:09;;;;;;;20.42;4.30;;;10.40;99.90;;;-144.05;76.76;125687.94;5016093;28;20137;-85
2022/12/24 08:55:36;;;;;;;25.13;5.20;;;10.30;99.90;;;-144.05;76.85;125687.94;5016446;28;20034;-87
2022/12/24 08:58:05;;;;;;;20.08;4.13;;;10.30;99.90;;;-144.05;77.06;125687.94;5018308;28;20030;-86
2022/12/24 09:00:31;;;;;;;23.70;4.78;;;10.30;99.90;;;-144.05;76.89;125687.94;5015338;28;20037;-80
2022/12/24 09:02:57;;;;;;;20.17;4.97;;;10.30;99.90;;;-144.05;77.13;125687.94;5015031;28;20462;-85
2022/12/24 09:05:24;;;;;;;28.35;5.05;;;10.30;99.90;;;-144.05;76.97;125687.94;5016103;28;20105;-83
2022/12/24 09:07:50;;;;;;;25.60;4.40;;;10.60;99.90;;;-144.05;76.57;125687.94;5015996;28;20033;-85
2022/12/24 09:10:16;;;;;;;18.02;4.18;;;10.30;99.90;;;-144.05;76.54;125687.94;5013869;28;20032;-85
2022/12/24 09:12:42;;;;;;;22.45;3.63;;;10.50;99.90;;;-144.05;76.62;125687.94;5031487;28;20094;-87
2022/12/24 09:15:08;;;;;;;28.15;5.50;;;10.40;99.90;;;-144.05;75.75;125687.94;5015618;28;20037;-83
2022/12/24 09:17:36;;;;;;;23.45;4.47;;;10.50;99.90;;;-144.05;75.83;125687.94;5015587;28;20030;-84
2022/12/24 09:20:05;;;;;;;23.77;4.82;;;10.50;99.90;;;-144.05;76.09;125687.94;5016209;28;20454;-85
2022/12/24 09:22:35;;;;;;;25.58;5.13;;;10.50;99.90;;;-144.05;76.71;125687.94;5018140;28;20097;-85
2022/12/24 09:25:03;;;;;;;31.15;5.85;;;10.50;99.90;;;-144.05;75.94;125687.94;5031198;28;20026;-86
2022/12/24 09:27:30;;;;;;;31.15;5.55;;;10.50;99.90;;;-144.05;76.31;125687.94;5028900;28;20049;-84
2022/12/24 09:29:56;;;;;;;21.88;4.70;;;10.50;99.90;;;-144.05;75.70;125687.94;5030185;28;20026;-78
2022/12/24 09:32:23;;;;;;;21.52;4.40;;;10.60;99.90;;;-144.05;75.55;125687.94;5032678;28;20041;-85
2022/12/24 09:34:49;;;;;;;31.33;6.45;;;10.50;99.90;;;-144.05;76.10;125687.94;5014305;28;20026;-85
2022/12/24 09:37:15;;;;;;;32.80;6.43;;;10.80;99.90;;;-144.05;76.25;125687.94;5015116;28;20111;-89
2022/12/24 09:39:41;;;;;;;29.25;4.95;;;10.50;99.90;;;-144.05;75.93;125687.94;5014646;28;20120;-87
2022/12/24 09:42:41;;;;;;;33.15;5.35;;;10.60;99.90;;;-144.05;76.08;125687.94;5014182;28;20073;-86
2022/12/24 09:45:28;;;;;;;31.88;5.38;;;10.60;99.90;;;-144.05;76.15;125687.94;5015062;28;20026;-83
2022/12/24 09:48:26;;;;;;;34.40;5.68;;;10.70;99.90;;;-144.05;76.05;125687.94;5013677;28;20041;-85
2022/12/24 09:51:15;;;;;;;29.13;6.55;;;10.70;99.90;;;-144.05;75.50;125687.94;5012143;28;20133;-84
2022/12/24 09:54:24;;;;;;;32.55;6.70;;;10.70;99.90;;;-144.05;75.37;125687.94;5012803;28;20073;-86
2022/12/24 09:56:53;;;;;;;29.75;5.43;;;10.80;99.90;;;-144.05;74.16;125687.94;5013073;28;20034;-85
2022/12/24 09:59:37;;;;;;;26.88;6.88;;;10.80;99.90;;;-144.05;74.15;125687.94;5015235;28;20034;-85
2022/12/24 10:02:18;;;;;;;26.23;4.68;;;10.90;99.90;;;-144.05;74.56;125687.94;5013753;28;20022;-85
2022/12/24 10:04:48;;;;;;;25.73;5.07;;;10.90;99.90;;;-144.05;74.68;125687.94;5014089;28;20120;-84
2022/12/24 10:07:53;;;;;;;25.40;4.82;;;10.80;99.90;;;-144.05;75.41;125687.94;5016759;28;20430;-85
2022/12/24 10:10:52;;;;;;;23.83;4.70;;;10.80;99.90;;;-144.05;74.89;125687.94;5017123;28;20030;-84
2022/12/24 10:14:05;;;;;;;21.73;4.38;;;10.70;99.90;;;-144.05;74.81;125687.94;5018083;28;20025;-86
2022/12/24 10:17:21;;;;;;;22.80;4.60;;;10.70;99.90;;;-144.05;75.08;125687.94;5017806;28;20474;-85
2022/12/24 10:20:40;;;;;;;28.08;5.22;;;10.70;99.90;;;-144.05;74.76;125687.94;4977121;28;20037;-82
2022/12/24 10:23:38;;;;;;;25.38;5.43;;;10.70;99.90;;;-144.05;74.38;125687.94;5017612;28;20370;-86